AirNav   ATP
 
 695 users online  

CL35 Warner Springs Gliderport
Warner Springs, California, USA

GOING TO WARNER SPRINGS?


FAA INFORMATION EFFECTIVE 24 MAY 2018

Location

FAA Identifier: CL35
Lat/Long: 33-17-04.2100N / 116-40-10.7650W
33-17.070167N / 116-40.179417W
33.2845028 / -116.6696569
(estimated)
Elevation: 2880 ft. / 878 m (estimated)
Variation: 13E (1985)
From city: 2 miles E of WARNER SPRINGS, CA
Time zone: UTC -7 (UTC -8 during Standard Time)
Zip code: 92086

Gliderport Operations

Gliderport use: Private use. Permission required prior to landing
Activation date: 10/1984
Control tower: no
ARTCC: LOS ANGELES CENTER
FSS: SAN DIEGO FLIGHT SERVICE STATION
Attendance: 0900-1700
Wind indicator: yes
Segmented circle: yes
Landing fee: yes

Gliderport Communications

UNICOM: 122.8
WX AWOS-3 at L08 (18 nm E): 126.575 (760-767-3308)
WX ASOS at RNM (19 nm SW): 132.025 (760-789-0736)

Nearby radio navigation aids

VOR radial/distance  VOR name  Freq  Var
JLIr319/9.6JULIAN VORTAC114.0015E
TRMr218/32.8THERMAL VORTAC116.2013E
PSPr186/37.1PALM SPRINGS VORTAC115.5013E
OCNr071/37.6OCEANSIDE VORTAC115.3015E
HDFr125/(39.2)HOMELAND VOR113.4014E

Gliderport Services

Runway Information

Runway 8/26

Dimensions: 3500 x 70 ft. / 1067 x 21 m
Surface: asphalt
RUNWAY 8  RUNWAY 26
Latitude: 33-17.060333N33-17.080000N
Longitude: 116-40.522667W116-39.836167W
Elevation: 2873.0 ft.2914.0 ft.
Traffic pattern: leftleft
Obstructions: none200 ft. hill, 5200 ft. from runway

Gliderport Ownership and Management from official FAA records

Ownership: Privately-owned
Owner: WARNER SPRINGS RANCH RESORT, LLC
31930 HWY 79
WARNER SPRINGS, CA 92086
Phone 760-782-4200
SKY SAILING 31930 HWY 79.
Manager: BRET WILLAT
SKY SAILING 31930 HWY 79
WARNER SPRINGS, CA 92086
Phone 760-782-0404
LEASEE.

Gliderport Operational Statistics

Aircraft based on the field: 80
Single engine airplanes: 10
Gliders airplanes: 70
    

Instrument Procedures

There are no published instrument procedures at CL35.

Some nearby airports with instrument procedures:

L08 - Borrego Valley Airport (18 nm E)
KRNM - Ramona Airport (19 nm SW)
F70 - French Valley Airport (29 nm NW)
L18 - Fallbrook Community Airpark (29 nm W)
KSEE - Gillespie Field Airport (31 nm SW)
 
Loc | Ops | Rwys | IFR | FBO | Links
Com | Nav | Svcs | Stats | Notes

AirNav Hotels Sweepstakes
 
Area around CL35 (Warner Springs Gliderport)
 
Road maps at: MapQuest Bing Google
 
Aerial photo
WARNING: Photo may not be current or correct
Aerial photo of CL35 (Warner Springs Gliderport)
Photo by Steve Lupinacci
Photo taken 27-May-2008

Do you have a better or more recent aerial photo of Warner Springs Gliderport that you would like to share? If so, please send us your photo.

 
Sectional chart

 
Airport distance calculator
Flying to Warner Springs Gliderport? Find the distance to fly.

From to CL35

Sunrise and sunset
Times for 19-Jun-2018
 Local
(UTC-7)
 Zulu
(UTC)
Morning civil twilight05:0912:09
Sunrise05:3812:38
Sunset19:5802:58
Evening civil twilight20:2703:27

Current date and time
Zulu (UTC)  20-Jun-2018 04:12:52
Local (UTC-7)  19-Jun-2018 21:12:52
 
METAR
KRNM 
20nm SW 
200353Z AUTO 29004KT 10SM CLR 16/12 A2996 RMK AO2 SLP138 T01560122 $
KF70 
29nm NW 
200355Z AUTO 16008KT 10SM CLR 17/13 A2996 RMK AO1
KL18 
29nm W 
200355Z AUTO 21003KT 10SM OVC011 16/13 A2997 RMK AO2
KSEE 
32nm SW 
200347Z 29004KT 7SM BKJ019 18/14 A2996
KCRQ 
32nm W 
200353Z VRB03KT 10SM OVC013 17/14 A2995 RMK AO2 SLP140 T01720144
KTRM 
33nm NE 
200352Z AUTO 01004KT 10SM CLR 28/09 A2972 RMK AO2 SLP065 T02830094
KPSP 
33nm N 
200353Z 31010KT 10SM CLR 36/08 A2978 RMK AO2 SLP079 T03560083
KNFG 
33nm W 
200355Z 00000KT 10SM BKN017 17/14 A2995 RMK AO2 SLP142 T01720144
KNKX 
34nm SW 
200355Z VRB03KT 10SM OVC014 19/13 A2995 RMK AO2 SLP138 T01890133
KOKB 
34nm W 
200352Z AUTO 00000KT 10SM OVC015 18/14 A2995 RMK AO2 SLP142 T01780139
TAF
KCRQ 
32nm W 
192041Z 1921/2018 26009KT P6SM FEW022 TEMPO 1921/1924 BKN018 FM200300 VRB03KT P6SM BKN016 FM200600 VRB03KT P6SM OVC012 FM201700 VRB04KT P6SM SCT015
KTRM 
33nm NE 
191727Z 1918/2018 14007KT P6SM SKC FM200600 33011KT P6SM SKC FM200900 33007KT P6SM SKC
KPSP 
33nm N 
191727Z 1918/2018 VRB04KT P6SM SKC FM192300 32012G20KT P6SM SKC FM200700 VRB05KT P6SM SKC
KNFG 
33nm W 
1921/2021 23008KT 9999 FEW020 QNH2987INS BECMG 2007/2009 VRB05KT 9999 BKN015 QNH2986INS BECMG 2016/2018 22008KT 9999 FEW020 QNH2985INS T23/1921Z T15/2013Z
KNKX 
34nm SW 
1921/2021 28008KT 9999 FEW020 QNH2990INS BECMG 2007/2009 VRB05KT 9999 BKN015 QNH2988INS BECMG 2016/2018 27008KT 9999 FEW020 QNH2987INS T25/1921Z T17/2013Z
NOTAMs
Click for the latest NOTAMs
NOTAMs are issued by the DoD/FAA and will open in a separate window not controlled by AirNav.

 

 
 

Would you like to see your business listed on this page?

 If your business provides an interesting product or service to pilots, flight crews, aircraft, or users of the Warner Springs Gliderport, you should consider listing it here.  To start the listing process, click on the button below
 
Add a business
 

Other Pages about Warner Springs Gliderport

www.agcsc.org/warner_springs_info.html
 
Update a link
 
Copyright © AirNav, LLC. All rights reserved. Privacy Policy  Contact